Historyczne dane pomiarowe

Dodano dane terminowe – wersja testowa.

Dane z okresu 1951-2019

Wersja bazy: 1.34 [2019-03-16, lista zmian], aktualizacja planowana na 2019-04-15

Dane meteo z obszaru Polski uzyskane na podstawie danych udostępnionych przez Instytut Meteorologii i Gospodarki Wodnej – Państwowy Instytut Badawczy.

 

Wybierz Datę:    

       

TemperaturaWilgotnośćZachmurzenieWiatrCiśnienieWidzialnośćZjawiska
 Data    tng td wb rh cc ccl cl cm ch dir g1 g2 mslp ppp      
2002-08-13 00:00:00 17.0--- 16.8 16.999wx-1wx--1001.7 988.8 16.3-----
2002-08-13 01:00:00 16.5--- 16.3 16.499wx-1wx--1001.7 988.8------
2002-08-13 02:00:00 16.8--- 16.6 16.799wx-4wx--1001.9 989.0------
2002-08-13 03:00:00 16.7--- 16.4 16.598wxwxwx2wx--1002.4 989.5----wx
2002-08-13 04:00:00 16.7--- 16.4 16.598wxwxwx4wx--1002.6 989.7----wx
2002-08-13 05:00:00 16.9--- 16.5 16.697wxwxwx3wx--1002.8 989.9----wx
2002-08-13 06:00:00 17.0--- 16.4 16.696wxwxwx2wx--1002.9 990.0 0.0---wx
2002-08-13 07:00:00 17.5--- 16.2 16.792wxwxwx1wx--1003.2 990.3----wx
2002-08-13 08:00:00 17.5--- 16.2 16.792wxwxwx1wx--1003.6 990.7----wx
2002-08-13 09:00:00 17.8--- 16.3 16.891wxwxwx1wx--1003.9 991.0----wx
2002-08-13 10:00:00 18.3--- 16.4 17.189wxwxwx1wx--1004.2 991.4----wx
2002-08-13 11:00:00 18.3--- 17.0 17.592wxwxwx1wx--1004.2 991.4----wxw1
2002-08-13 12:00:00 18.8--- 17.6 18.093wxwxwx1wx--1004.6 991.8 0.3---wxw1
2002-08-13 13:00:00 19.1--- 17.3 17.989wxwxwx2wx--1005.0 992.2----wx
2002-08-13 14:00:00 18.2--- 17.4 17.795wxwxwx3wx--1005.3 992.4----wxw1
2002-08-13 15:00:00 17.3--- 15.9 16.492wxwxwx3wx--1005.5 992.6----wxw1
2002-08-13 16:00:00 17.0--- 16.4 16.696wxwxwxwx2wx--1005.9 993.0----wxw1
2002-08-13 17:00:00 16.8--- 16.3 16.597wxwxwxwx1wx--1006.2 993.3----wxw1
2002-08-13 18:00:00 16.7--- 16.4 16.598wxwxwxwx1wx--1006.3 993.4 1.0---wxw1
2002-08-13 19:00:00 16.9--- 16.7 16.899wxwxwxwx2wx--1006.4 993.5----wxw1
2002-08-13 20:00:00 16.9--- 16.7 16.899wxwxwx2wx--1006.6 993.7----wx
2002-08-13 21:00:00 16.8--- 16.6 16.799wxwxwx2wx--1006.8 993.9----wxw1
2002-08-13 22:00:00 16.8--- 16.6 16.799wx-1wx--1006.6 993.7------
2002-08-13 23:00:00 17.1--- 17.0 17.099wx-2wx--1006.5 993.6------

 

Źródłem pochodzenia danych jest Instytut Meteorologii i Gospodarki Wodnej – Państwowy Instytut Badawczy. Dane Instytutu Meteorologii i Gospodarki Wodnej – Państwowego Instytutu Badawczego zostały przetworzone.

Dane źródłowe można odnaleźć na stronie https://dane.imgw.pl